Main page
METAR-TAF:

METAR-TAF

Airports :

Kish International Airport

Kish, Iran

latitude: 26-31-36N, longitude: 053-58-54E, elevation: 30 m

Current weather observation

The report was made 35 minutes ago, at 04:00 UTC
Wind 6 kt from the East
Temperature 16°C
Humidity 36%
Pressure 1019 hPa
Visibility 10 km or more
no clouds below 1500 m and no cumulonimbus

METAR: OIBK 210400Z 10006KT CAVOK 16/01 Q1019

Time: 08:05 (04:35 UTC)

Forecast

The report was made 5 hours and 25 minutes ago, at 23:10 UTC
Forecast valid from 21 at 00 UTC to 22 at 06 UTC
Wind 10 kt from the Northwest
Visibility: 7000 m
Temporary
from 21 at 00 UTC to 21 at 03 UTC
Wind 15 kt from the Northwest with gusts up to 25 kt
Visibility: 3000 m
sand

TAF: OIBK 202310Z 2100/2206 32010KT 7000 NSC TEMPO 2100/2103 32015G25KT 3000 SA

Weather observations and forecasts of more than 4000 airports (METAR and TAF reports).

The available stations are represented by yellow and red dots on the map.

Hover mouse over dot to see the name of the station.

Then click to see weather observations and forecasts.

To change the map : click on the green buttons with a black cross to zoom in, on the green button with a dash to zoom out, or on the green arrows for adjacent maps.


METAR-TAF: